createdAt,value
2017-11-14T00:01:20.737Z,6.10
2017-11-14T00:03:48.375Z,6.12
2017-11-14T00:06:15.979Z,6.16
2017-11-14T00:08:43.609Z,6.19
2017-11-14T00:11:11.219Z,6.19
2017-11-14T00:13:38.888Z,6.19
2017-11-14T00:16:06.494Z,6.24
2017-11-14T00:18:34.140Z,6.25
2017-11-14T00:21:01.749Z,6.27
2017-11-14T00:23:29.394Z,6.28
2017-11-14T00:25:57.010Z,6.29
2017-11-14T00:28:24.669Z,6.26
2017-11-14T00:30:52.279Z,6.23
2017-11-14T00:33:19.904Z,6.10
2017-11-14T00:35:47.518Z,5.71
2017-11-14T00:38:15.170Z,5.69
2017-11-14T00:40:42.765Z,5.71
2017-11-14T00:43:10.622Z,5.71
2017-11-14T00:45:38.222Z,5.70
2017-11-14T00:48:05.864Z,5.71
2017-11-14T00:50:33.580Z,5.66
2017-11-14T00:53:01.238Z,5.62
2017-11-14T00:55:28.902Z,5.54
2017-11-14T00:57:56.553Z,5.47
2017-11-14T01:00:24.330Z,5.44
2017-11-14T01:02:51.967Z,5.38
2017-11-14T01:05:19.558Z,5.35
2017-11-14T01:07:47.214Z,5.34
2017-11-14T01:10:14.826Z,5.35
2017-11-14T01:12:42.470Z,5.35
2017-11-14T01:15:10.073Z,5.36
2017-11-14T01:17:37.715Z,5.34
2017-11-14T01:20:05.334Z,5.28
2017-11-14T01:22:32.946Z,5.24
2017-11-14T01:25:00.622Z,5.27
2017-11-14T01:27:28.231Z,5.21
2017-11-14T01:29:55.861Z,5.13
2017-11-14T01:32:23.457Z,5.13
2017-11-14T01:34:51.239Z,5.20
2017-11-14T01:37:18.839Z,5.22
2017-11-14T01:39:46.474Z,5.00
2017-11-14T01:42:14.101Z,4.69
2017-11-14T01:44:41.740Z,4.57
2017-11-14T01:47:09.344Z,4.66
2017-11-14T01:49:37.011Z,4.67
2017-11-14T01:52:04.614Z,4.69
2017-11-14T01:54:32.258Z,4.70
2017-11-14T01:56:59.863Z,4.74
2017-11-14T01:59:27.615Z,4.75
2017-11-14T02:01:55.245Z,4.74
2017-11-14T02:04:22.874Z,4.72
2017-11-14T02:06:50.474Z,4.74
2017-11-14T02:09:18.105Z,4.77
2017-11-14T02:11:45.697Z,4.80
2017-11-14T02:14:13.435Z,4.85
2017-11-14T02:16:41.040Z,4.87
2017-11-14T02:19:08.722Z,4.87
2017-11-14T02:21:36.309Z,4.95
2017-11-14T02:24:03.938Z,4.90
2017-11-14T02:26:31.588Z,4.88
2017-11-14T02:28:59.214Z,4.84
2017-11-14T02:31:26.814Z,4.82
2017-11-14T02:33:54.443Z,4.83
2017-11-14T02:36:22.052Z,4.86
2017-11-14T02:38:49.678Z,4.86
2017-11-14T02:41:17.290Z,4.87
2017-11-14T02:43:44.930Z,4.88
2017-11-14T02:46:12.543Z,4.90
2017-11-14T02:48:40.191Z,4.94
2017-11-14T02:51:07.787Z,4.92
2017-11-14T02:53:35.454Z,4.81
2017-11-14T02:56:03.060Z,4.83
2017-11-14T02:58:30.699Z,4.81
2017-11-14T03:00:58.304Z,4.71
2017-11-14T03:03:25.934Z,4.81
2017-11-14T03:05:53.545Z,4.85
2017-11-14T03:08:21.245Z,4.76
2017-11-14T03:10:48.862Z,4.79
2017-11-14T03:13:16.523Z,4.89
2017-11-14T03:15:44.114Z,4.90
2017-11-14T03:18:11.774Z,4.85
2017-11-14T03:20:39.358Z,4.81
2017-11-14T03:23:06.976Z,4.88
2017-11-14T03:25:34.568Z,4.89
2017-11-14T03:28:02.203Z,4.89
2017-11-14T03:30:29.795Z,4.95
2017-11-14T03:32:57.439Z,4.92
2017-11-14T03:35:25.050Z,4.92
2017-11-14T03:37:52.686Z,4.94
2017-11-14T03:40:20.391Z,5.00
2017-11-14T03:42:48.035Z,4.98
2017-11-14T03:45:15.631Z,4.99
2017-11-14T03:47:43.291Z,5.01
2017-11-14T03:50:10.880Z,4.72
2017-11-14T03:52:38.678Z,4.45
2017-11-14T03:55:06.278Z,4.24
2017-11-14T03:57:34.018Z,4.12
2017-11-14T04:00:01.613Z,4.07
2017-11-14T04:02:29.245Z,4.03
2017-11-14T04:04:56.859Z,4.07
2017-11-14T04:07:24.926Z,4.23
2017-11-14T04:09:52.536Z,4.35
2017-11-14T04:12:20.166Z,4.33
2017-11-14T04:14:47.775Z,4.35
2017-11-14T04:17:15.409Z,4.29
2017-11-14T04:19:43.034Z,4.33
2017-11-14T04:22:10.667Z,4.39
2017-11-14T04:24:38.268Z,4.34
2017-11-14T04:27:05.899Z,4.47
2017-11-14T04:29:33.509Z,4.53
2017-11-14T04:32:01.149Z,4.60
2017-11-14T04:34:28.769Z,4.71
2017-11-14T04:36:56.404Z,4.70
2017-11-14T04:39:24.009Z,4.68
2017-11-14T04:41:51.656Z,4.66
2017-11-14T04:44:19.271Z,4.67
2017-11-14T04:46:46.917Z,4.65
2017-11-14T04:49:14.624Z,4.64
2017-11-14T04:51:42.258Z,4.64
2017-11-14T04:54:09.890Z,4.63
2017-11-14T04:56:37.529Z,4.64
2017-11-14T04:59:05.122Z,4.69
2017-11-14T05:01:32.759Z,4.60
2017-11-14T05:04:00.386Z,4.64
2017-11-14T05:06:28.025Z,4.68
2017-11-14T05:08:55.715Z,4.43
2017-11-14T05:11:23.366Z,4.15
2017-11-14T05:13:50.962Z,4.07
2017-11-14T05:16:18.594Z,4.14
2017-11-14T05:18:46.198Z,4.22
2017-11-14T05:21:13.896Z,4.40
2017-11-14T05:23:41.528Z,4.37
2017-11-14T05:26:09.190Z,4.28
2017-11-14T05:28:36.843Z,4.34
2017-11-14T05:31:04.491Z,4.42
2017-11-14T05:33:32.108Z,4.49
2017-11-14T05:35:59.758Z,4.50
2017-11-14T05:38:27.370Z,4.54
2017-11-14T05:40:55.162Z,4.56
2017-11-14T05:43:22.767Z,4.49
2017-11-14T05:45:50.397Z,4.50
2017-11-14T05:48:18.005Z,4.33
2017-11-14T05:50:45.647Z,4.18
2017-11-14T05:53:13.262Z,3.98
2017-11-14T05:55:40.867Z,3.88
2017-11-14T05:58:08.511Z,3.82
2017-11-14T06:00:36.223Z,3.89
2017-11-14T06:03:03.978Z,4.03
2017-11-14T06:05:31.746Z,4.04
2017-11-14T06:07:59.387Z,3.94
2017-11-14T06:10:27.114Z,3.92
2017-11-14T06:12:54.749Z,4.02
2017-11-14T06:15:22.349Z,4.15
2017-11-14T06:17:50.000Z,4.22
2017-11-14T06:20:17.618Z,4.23
2017-11-14T06:22:45.331Z,4.24
2017-11-14T06:25:12.944Z,4.29
2017-11-14T06:27:40.580Z,4.34
2017-11-14T06:30:08.326Z,4.32
2017-11-14T06:32:35.931Z,4.12
2017-11-14T06:35:03.577Z,3.85
2017-11-14T06:37:31.190Z,3.71
2017-11-14T06:39:58.831Z,3.68
2017-11-14T06:42:26.430Z,3.68
2017-11-14T06:44:54.105Z,3.86
2017-11-14T06:47:21.720Z,3.99
2017-11-14T06:49:49.404Z,4.10
2017-11-14T06:52:17.007Z,4.23
2017-11-14T06:54:44.650Z,4.31
2017-11-14T06:57:12.267Z,4.41
2017-11-14T06:59:39.882Z,4.48
2017-11-14T07:02:07.537Z,4.56
2017-11-14T07:04:35.154Z,4.55
2017-11-14T07:07:02.799Z,4.43
2017-11-14T07:09:30.426Z,4.31
2017-11-14T07:11:58.077Z,4.32
2017-11-14T07:14:25.697Z,4.24
2017-11-14T07:16:53.350Z,4.12
2017-11-14T07:19:20.974Z,4.05
2017-11-14T07:21:48.601Z,4.08
2017-11-14T07:24:16.203Z,4.13
2017-11-14T07:26:43.936Z,4.14
2017-11-14T07:29:11.755Z,4.23
2017-11-14T07:31:39.396Z,4.36
2017-11-14T07:34:06.998Z,4.52
2017-11-14T07:36:34.751Z,4.57
2017-11-14T07:39:02.354Z,4.65
2017-11-14T07:41:30.023Z,4.81
2017-11-14T07:43:57.631Z,4.75
2017-11-14T07:46:25.312Z,4.66
2017-11-14T07:48:52.931Z,4.69
2017-11-14T07:51:20.644Z,4.71
2017-11-14T07:53:48.259Z,4.84
2017-11-14T07:56:15.911Z,4.87
2017-11-14T07:58:43.515Z,4.88
2017-11-14T08:01:11.158Z,4.84
2017-11-14T08:03:38.784Z,4.84
2017-11-14T08:06:06.454Z,4.89
2017-11-14T08:08:34.111Z,5.00
2017-11-14T08:11:01.761Z,5.05
2017-11-14T08:13:29.370Z,5.03
2017-11-14T08:15:56.994Z,4.97
2017-11-14T08:18:24.592Z,4.99
2017-11-14T08:20:52.247Z,5.07
2017-11-14T08:23:19.851Z,5.09
2017-11-14T08:25:47.510Z,5.08
2017-11-14T08:28:15.127Z,5.16
2017-11-14T08:30:42.763Z,5.22
2017-11-14T08:33:10.387Z,5.28
2017-11-14T08:35:38.035Z,5.33
2017-11-14T08:38:05.667Z,5.36
2017-11-14T08:40:33.295Z,5.44
2017-11-14T08:43:00.889Z,5.44
2017-11-14T08:45:28.551Z,5.45
2017-11-14T08:47:56.169Z,5.53
2017-11-14T08:50:23.811Z,5.54
2017-11-14T08:52:51.420Z,5.59
2017-11-14T08:55:19.114Z,5.62
2017-11-14T08:57:46.739Z,5.64
2017-11-14T09:00:14.370Z,5.70
2017-11-14T09:02:41.987Z,5.71
2017-11-14T09:05:09.663Z,5.77
2017-11-14T09:07:37.319Z,5.81
2017-11-14T09:10:04.978Z,5.84
2017-11-14T09:12:32.600Z,5.89
2017-11-14T09:15:00.226Z,6.06
2017-11-14T09:17:27.831Z,6.29
2017-11-14T09:19:55.621Z,6.55
2017-11-14T09:22:23.223Z,6.75
2017-11-14T09:24:50.854Z,6.96
2017-11-14T09:27:18.555Z,7.15
2017-11-14T09:29:46.185Z,7.35
2017-11-14T09:32:13.796Z,7.38
2017-11-14T09:34:41.423Z,7.36
2017-11-14T09:37:09.016Z,7.49
2017-11-14T09:39:36.643Z,7.52
2017-11-14T09:42:04.246Z,7.57
2017-11-14T09:44:31.891Z,7.53
2017-11-14T09:46:59.500Z,7.57
2017-11-14T09:49:27.126Z,7.65
2017-11-14T09:51:54.736Z,7.69
2017-11-14T09:54:22.371Z,7.72
2017-11-14T09:56:50.001Z,7.75
2017-11-14T09:59:17.655Z,7.78
2017-11-14T10:01:45.254Z,7.79
2017-11-14T10:04:12.893Z,7.84
2017-11-14T10:06:40.479Z,7.94
2017-11-14T10:09:08.112Z,7.97
2017-11-14T10:11:35.800Z,8.09
2017-11-14T10:14:03.424Z,8.21
2017-11-14T10:16:31.138Z,8.35
2017-11-14T10:18:58.763Z,8.43
2017-11-14T10:21:26.365Z,8.53
2017-11-14T10:23:54.008Z,8.63
2017-11-14T10:26:21.698Z,8.70
2017-11-14T10:28:49.288Z,8.63
2017-11-14T10:31:16.923Z,8.71
2017-11-14T10:33:44.555Z,8.80
2017-11-14T10:36:12.160Z,8.96
2017-11-14T10:38:39.831Z,9.11
2017-11-14T10:41:07.427Z,9.20
2017-11-14T10:43:35.048Z,9.25
2017-11-14T10:46:02.637Z,9.28
2017-11-14T10:48:30.272Z,9.28
2017-11-14T10:50:57.871Z,9.18
2017-11-14T10:53:25.508Z,9.17
2017-11-14T10:55:53.117Z,9.21
2017-11-14T10:58:20.726Z,9.31
2017-11-14T11:00:48.307Z,9.42
2017-11-14T11:03:15.931Z,9.50
2017-11-14T11:05:43.602Z,9.47
2017-11-14T11:08:11.275Z,9.41
2017-11-14T11:10:38.862Z,9.34
2017-11-14T11:13:06.489Z,9.33
2017-11-14T11:15:34.079Z,9.34
2017-11-14T11:18:01.727Z,9.35
2017-11-14T11:20:29.331Z,9.43
2017-11-14T11:22:56.978Z,9.56
2017-11-14T11:25:24.573Z,9.71
2017-11-14T11:27:52.163Z,9.89
2017-11-14T11:30:19.789Z,10.08
2017-11-14T11:32:47.570Z,10.27
2017-11-14T11:35:15.178Z,10.51
2017-11-14T11:37:42.778Z,10.47
2017-11-14T11:40:10.407Z,10.25
2017-11-14T11:42:38.015Z,10.17
2017-11-14T11:45:05.660Z,10.07
2017-11-14T11:47:33.938Z,9.96
2017-11-14T11:50:01.551Z,9.90
2017-11-14T11:52:29.164Z,9.85
2017-11-14T11:54:56.823Z,9.82
2017-11-14T11:57:24.406Z,9.76
2017-11-14T11:59:52.049Z,9.88
2017-11-14T12:02:21.229Z,10.11
2017-11-14T12:04:48.906Z,10.40
2017-11-14T12:07:16.499Z,10.55
2017-11-14T12:09:44.164Z,10.41
2017-11-14T12:12:11.770Z,10.35
2017-11-14T12:14:39.407Z,10.35
2017-11-14T12:17:07.011Z,10.31
2017-11-14T12:19:34.645Z,10.21
2017-11-14T12:22:02.243Z,10.11
2017-11-14T12:24:29.883Z,10.00
2017-11-14T12:26:57.500Z,9.99
2017-11-14T12:29:25.166Z,9.95
2017-11-14T12:31:52.757Z,10.18
2017-11-14T12:34:20.398Z,10.44
2017-11-14T12:36:48.009Z,10.83
2017-11-14T12:39:15.656Z,11.15
2017-11-14T12:41:43.250Z,11.20
2017-11-14T12:44:10.884Z,11.11
2017-11-14T12:46:38.538Z,11.13
2017-11-14T12:49:06.202Z,11.06
2017-11-14T12:51:33.885Z,10.90
2017-11-14T12:54:01.532Z,10.80
2017-11-14T12:56:29.132Z,10.73
2017-11-14T12:58:56.759Z,10.78
2017-11-14T13:01:24.364Z,10.68
2017-11-14T13:03:52.131Z,10.57
2017-11-14T13:06:19.734Z,10.45
2017-11-14T13:08:47.406Z,10.40
2017-11-14T13:11:14.990Z,10.33
2017-11-14T13:13:42.611Z,10.30
2017-11-14T13:16:10.283Z,10.32
2017-11-14T13:18:37.931Z,10.35
2017-11-14T13:21:05.535Z,10.34
2017-11-14T13:23:33.172Z,10.33
2017-11-14T13:26:00.766Z,10.32
2017-11-14T13:28:28.398Z,10.37
2017-11-14T13:30:55.996Z,10.36
2017-11-14T13:33:23.620Z,10.40
2017-11-14T13:35:51.219Z,10.42
2017-11-14T13:38:18.835Z,10.48
2017-11-14T13:40:46.451Z,10.54
2017-11-14T13:43:14.079Z,10.61
2017-11-14T13:45:41.735Z,10.57
2017-11-14T13:48:09.382Z,10.47
2017-11-14T13:50:36.998Z,10.45
2017-11-14T13:53:04.673Z,10.41
2017-11-14T13:55:32.268Z,10.33
2017-11-14T13:57:59.939Z,10.28
2017-11-14T14:00:27.529Z,10.24
2017-11-14T14:02:55.188Z,10.19
2017-11-14T14:05:22.807Z,10.16
2017-11-14T14:07:50.446Z,10.14
2017-11-14T14:10:18.056Z,10.10
2017-11-14T14:12:45.701Z,10.13
2017-11-14T14:15:13.324Z,10.13
2017-11-14T14:17:41.155Z,10.10
2017-11-14T14:20:09.026Z,10.13
2017-11-14T14:22:36.983Z,10.10
2017-11-14T14:25:04.916Z,10.10
2017-11-14T14:27:32.866Z,10.08
2017-11-14T14:30:01.617Z,10.09
2017-11-14T14:32:29.550Z,10.04
2017-11-14T14:34:57.453Z,10.02
2017-11-14T14:37:25.385Z,10.02
2017-11-14T14:39:53.292Z,10.04
2017-11-14T14:42:21.093Z,10.03
2017-11-14T14:44:48.784Z,10.01
2017-11-14T14:47:16.436Z,10.03
2017-11-14T14:49:44.054Z,10.01
2017-11-14T14:52:11.684Z,9.99
2017-11-14T14:54:39.308Z,9.99
2017-11-14T14:57:07.066Z,9.95
2017-11-14T14:59:34.675Z,9.97
2017-11-14T15:02:02.311Z,9.96
2017-11-14T15:04:29.948Z,9.99
2017-11-14T15:06:57.559Z,10.00
2017-11-14T15:09:25.199Z,10.03
2017-11-14T15:11:52.840Z,10.06
2017-11-14T15:14:20.506Z,10.04
2017-11-14T15:16:48.137Z,10.01
2017-11-14T15:19:15.804Z,9.98
2017-11-14T15:21:43.402Z,9.96
2017-11-14T15:24:11.016Z,9.97
2017-11-14T15:26:38.617Z,9.97
2017-11-14T15:29:06.275Z,9.95
2017-11-14T15:31:33.883Z,9.93
2017-11-14T15:34:01.515Z,9.93
2017-11-14T15:36:29.133Z,9.89
2017-11-14T15:38:56.790Z,9.89
2017-11-14T15:41:24.415Z,9.86
2017-11-14T15:43:52.060Z,9.89
2017-11-14T15:46:19.691Z,9.88
2017-11-14T15:48:47.335Z,9.88
2017-11-14T15:51:14.984Z,9.86
2017-11-14T15:53:42.626Z,9.85
2017-11-14T15:56:10.337Z,9.83
2017-11-14T15:58:37.983Z,9.83
2017-11-14T16:01:05.646Z,9.82
2017-11-14T16:03:33.286Z,9.82
2017-11-14T16:06:00.886Z,9.86
2017-11-14T16:08:28.524Z,9.88
2017-11-14T16:10:56.143Z,9.87
2017-11-14T16:13:23.819Z,9.86
2017-11-14T16:15:51.425Z,9.86
2017-11-14T16:18:19.127Z,9.86
2017-11-14T16:20:46.731Z,9.84
2017-11-14T16:23:14.375Z,9.88
2017-11-14T16:25:41.987Z,9.88
2017-11-14T16:28:09.633Z,9.87
2017-11-14T16:30:37.232Z,9.86
2017-11-14T16:33:04.887Z,9.86
2017-11-14T16:35:32.513Z,9.86
2017-11-14T16:38:00.201Z,9.87
2017-11-14T16:40:27.817Z,9.90
2017-11-14T16:42:55.475Z,9.87
2017-11-14T16:45:23.121Z,9.86
2017-11-14T16:47:50.850Z,9.85
2017-11-14T16:50:18.443Z,9.85
2017-11-14T16:52:46.094Z,9.84
2017-11-14T16:55:13.698Z,9.86
2017-11-14T16:57:41.361Z,9.85
2017-11-14T17:00:08.984Z,9.84
2017-11-14T17:02:36.631Z,9.83
2017-11-14T17:05:04.283Z,9.81
2017-11-14T17:07:31.943Z,9.83
2017-11-14T17:09:59.566Z,9.83
2017-11-14T17:12:27.203Z,9.82
2017-11-14T17:14:54.819Z,9.80
2017-11-14T17:17:22.467Z,9.79
2017-11-14T17:19:50.143Z,9.78
2017-11-14T17:22:17.827Z,9.79
2017-11-14T17:24:45.426Z,9.78
2017-11-14T17:27:13.083Z,9.77
2017-11-14T17:29:40.691Z,9.77
2017-11-14T17:32:08.328Z,9.75
2017-11-14T17:34:35.942Z,9.73
2017-11-14T17:37:03.622Z,9.70
2017-11-14T17:39:31.253Z,9.71
2017-11-14T17:41:58.915Z,9.72
2017-11-14T17:44:26.534Z,9.73
2017-11-14T17:46:54.177Z,9.75
2017-11-14T17:49:21.794Z,9.80
2017-11-14T17:51:49.447Z,9.79
2017-11-14T17:54:17.051Z,9.79
2017-11-14T17:56:44.709Z,9.79
2017-11-14T17:59:12.323Z,9.78
2017-11-14T18:01:39.965Z,9.81
2017-11-14T18:04:07.575Z,9.85
2017-11-14T18:06:35.227Z,9.83
2017-11-14T18:09:02.861Z,9.79
2017-11-14T18:11:30.518Z,9.78
2017-11-14T18:13:58.136Z,9.75
2017-11-14T18:16:25.778Z,9.76
2017-11-14T18:18:53.488Z,9.78
2017-11-14T18:21:21.117Z,9.79
2017-11-14T18:23:48.717Z,9.80
2017-11-14T18:26:16.387Z,9.79
2017-11-14T18:28:44.032Z,9.78
2017-11-14T18:31:11.849Z,9.80
2017-11-14T18:33:39.442Z,9.77
2017-11-14T18:36:07.122Z,9.78
2017-11-14T18:38:34.761Z,9.80
2017-11-14T18:41:02.405Z,9.83
2017-11-14T18:43:30.096Z,9.80
2017-11-14T18:45:57.777Z,9.77
2017-11-14T18:48:25.373Z,9.76
2017-11-14T18:50:52.983Z,9.76
2017-11-14T18:53:20.628Z,9.76
2017-11-14T18:55:48.510Z,9.72
2017-11-14T18:58:16.166Z,9.70
2017-11-14T19:00:43.842Z,9.72
2017-11-14T19:03:11.457Z,9.69
2017-11-14T19:05:39.108Z,9.67
2017-11-14T19:08:06.716Z,9.67
2017-11-14T19:10:34.375Z,9.68
2017-11-14T19:13:02.063Z,9.66
2017-11-14T19:15:29.800Z,9.64
2017-11-14T19:17:57.436Z,9.63
2017-11-14T19:20:25.108Z,9.61
2017-11-14T19:22:52.749Z,9.61
2017-11-14T19:25:20.456Z,9.62
2017-11-14T19:27:48.072Z,9.63
2017-11-14T19:30:15.734Z,9.62
2017-11-14T19:32:43.407Z,9.61
2017-11-14T19:35:11.149Z,9.57
2017-11-14T19:37:38.895Z,9.56
2017-11-14T19:40:06.580Z,9.55
2017-11-14T19:42:34.382Z,9.56
2017-11-14T19:45:02.122Z,9.57
2017-11-14T19:47:29.910Z,9.56
2017-11-14T19:49:57.799Z,9.56
2017-11-14T19:52:25.698Z,9.55
2017-11-14T19:54:53.582Z,9.55
2017-11-14T19:57:21.469Z,9.53
2017-11-14T19:59:49.362Z,9.53
2017-11-14T20:02:17.268Z,9.58
2017-11-14T20:04:45.122Z,9.61
2017-11-14T20:07:13.004Z,9.60
2017-11-14T20:09:40.953Z,9.60
2017-11-14T20:12:08.804Z,9.60
2017-11-14T20:14:36.698Z,9.57
2017-11-14T20:17:04.614Z,9.54
2017-11-14T20:19:32.517Z,9.43
2017-11-14T20:22:00.509Z,9.30
2017-11-14T20:24:28.383Z,9.10
2017-11-14T20:26:56.357Z,9.05
2017-11-14T20:29:24.554Z,8.93
2017-11-14T20:31:52.589Z,8.89
2017-11-14T20:34:20.705Z,8.87
2017-11-14T20:36:48.748Z,8.84
2017-11-14T20:39:16.653Z,8.80
2017-11-14T20:41:44.665Z,8.76
2017-11-14T20:44:12.639Z,8.76
2017-11-14T20:46:40.624Z,8.81
2017-11-14T20:49:08.598Z,8.79
2017-11-14T20:51:36.556Z,8.75
2017-11-14T20:54:04.453Z,8.69
2017-11-14T20:56:32.383Z,8.64
2017-11-14T20:59:00.168Z,8.64
2017-11-14T21:01:27.922Z,8.61
2017-11-14T21:03:55.580Z,8.66
2017-11-14T21:06:23.245Z,8.67
2017-11-14T21:08:50.899Z,8.67
2017-11-14T21:11:18.673Z,8.66
2017-11-14T21:13:46.274Z,8.61
2017-11-14T21:16:14.051Z,8.59
2017-11-14T21:18:41.690Z,8.55
2017-11-14T21:21:09.351Z,8.48
2017-11-14T21:23:36.967Z,8.41
2017-11-14T21:26:04.618Z,8.36
2017-11-14T21:28:32.247Z,8.33
2017-11-14T21:30:59.893Z,8.33
2017-11-14T21:33:27.520Z,8.29
2017-11-14T21:35:55.172Z,8.32
2017-11-14T21:38:22.854Z,8.35
2017-11-14T21:40:50.517Z,8.34
2017-11-14T21:43:19.826Z,8.32
2017-11-14T21:45:47.517Z,8.29
2017-11-14T21:48:15.138Z,8.26
2017-11-14T21:50:42.823Z,8.28
2017-11-14T21:53:10.443Z,8.28
2017-11-14T21:55:38.167Z,8.26
2017-11-14T21:58:05.793Z,8.24
2017-11-14T22:00:33.430Z,8.22
2017-11-14T22:03:01.044Z,8.19
2017-11-14T22:05:28.691Z,8.15
2017-11-14T22:07:56.309Z,8.09
2017-11-14T22:10:23.962Z,8.14
2017-11-14T22:12:51.587Z,8.13
2017-11-14T22:15:19.267Z,8.13
2017-11-14T22:17:46.877Z,8.11
2017-11-14T22:20:14.538Z,8.09
2017-11-14T22:22:42.171Z,8.08
2017-11-14T22:25:09.814Z,8.09
2017-11-14T22:27:37.438Z,8.09
2017-11-14T22:30:05.100Z,8.10
2017-11-14T22:32:32.714Z,8.13
2017-11-14T22:35:00.362Z,8.11
2017-11-14T22:37:27.994Z,8.09
2017-11-14T22:39:55.657Z,8.10
2017-11-14T22:42:23.318Z,8.13
2017-11-14T22:44:51.067Z,8.14
2017-11-14T22:47:18.696Z,8.13
2017-11-14T22:49:46.363Z,8.12
2017-11-14T22:52:13.988Z,8.10
2017-11-14T22:54:41.646Z,8.09
2017-11-14T22:57:09.263Z,8.08
2017-11-14T22:59:36.928Z,8.09
2017-11-14T23:02:04.535Z,8.14
2017-11-14T23:04:32.251Z,8.13
2017-11-14T23:06:59.891Z,8.10
2017-11-14T23:09:27.513Z,8.12
2017-11-14T23:11:55.235Z,8.12
2017-11-14T23:14:22.891Z,8.11
2017-11-14T23:16:50.499Z,8.09
2017-11-14T23:19:18.167Z,8.13
2017-11-14T23:21:45.816Z,8.15
2017-11-14T23:24:13.419Z,8.12
2017-11-14T23:26:41.054Z,8.12
2017-11-14T23:29:08.666Z,8.11
2017-11-14T23:31:36.299Z,8.13
2017-11-14T23:34:03.916Z,8.12
2017-11-14T23:36:31.555Z,8.16
2017-11-14T23:38:59.217Z,8.14
2017-11-14T23:41:26.831Z,8.12
2017-11-14T23:43:54.483Z,8.08
2017-11-14T23:46:22.092Z,8.08
2017-11-14T23:48:49.742Z,8.07
2017-11-14T23:51:17.350Z,8.06
2017-11-14T23:53:44.986Z,8.12
2017-11-14T23:56:12.603Z,8.16
2017-11-14T23:58:40.254Z,8.14
